createdAt,value
2022-12-28T00:01:54.426Z,6.30
2022-12-28T00:03:58.596Z,6.30
2022-12-28T00:06:01.766Z,6.30
2022-12-28T00:08:04.909Z,6.30
2022-12-28T00:10:08.674Z,6.30
2022-12-28T00:12:12.069Z,6.30
2022-12-28T00:14:15.871Z,6.30
2022-12-28T00:16:20.800Z,6.30
2022-12-28T00:18:23.335Z,6.30
2022-12-28T00:20:25.858Z,6.30
2022-12-28T00:22:28.584Z,6.30
2022-12-28T00:24:31.313Z,6.30
2022-12-28T00:26:34.851Z,6.30
2022-12-28T00:28:37.443Z,6.40
2022-12-28T00:30:40.075Z,6.40
2022-12-28T00:32:42.599Z,6.40
2022-12-28T00:34:45.225Z,6.30
2022-12-28T00:37:08.837Z,6.40
2022-12-28T00:38:54.873Z,6.40
2022-12-28T00:40:57.483Z,6.40
2022-12-28T00:43:00.206Z,6.40
2022-12-28T00:45:02.921Z,6.50
2022-12-28T00:47:05.578Z,6.50
2022-12-28T00:49:08.067Z,6.60
2022-12-28T00:51:11.985Z,6.60
2022-12-28T00:53:14.979Z,6.60
2022-12-28T00:55:17.607Z,6.60
2022-12-28T00:57:20.291Z,6.70
2022-12-28T00:59:22.908Z,6.70
2022-12-28T01:01:26.224Z,6.70
2022-12-28T01:03:28.949Z,6.70
2022-12-28T01:05:33.296Z,6.80
2022-12-28T01:07:35.904Z,6.80
2022-12-28T01:09:38.579Z,6.80
2022-12-28T01:11:41.167Z,6.80
2022-12-28T01:13:43.864Z,6.80
2022-12-28T01:15:46.367Z,7.60
2022-12-28T01:17:50.185Z,6.90
2022-12-28T01:19:54.168Z,6.90
2022-12-28T01:21:57.495Z,6.80
2022-12-28T01:24:01.843Z,6.90
2022-12-28T01:26:06.698Z,6.80
2022-12-28T01:28:09.165Z,6.70
2022-12-28T01:30:13.253Z,6.80
2022-12-28T01:32:15.856Z,6.70
2022-12-28T01:34:18.342Z,6.70
2022-12-28T01:36:23.762Z,6.60
2022-12-28T01:38:26.353Z,6.60
2022-12-28T01:40:29.016Z,6.60
2022-12-28T01:42:31.673Z,6.50
2022-12-28T01:44:43.860Z,6.60
2022-12-28T01:46:49.335Z,6.60
2022-12-28T01:48:53.796Z,6.60
2022-12-28T01:50:56.399Z,6.60
2022-12-28T01:53:00.818Z,6.60
2022-12-28T01:55:05.878Z,6.60
2022-12-28T01:57:08.610Z,6.60
2022-12-28T01:59:11.387Z,6.60
2022-12-28T02:01:13.948Z,6.60
2022-12-28T02:03:18.394Z,6.50
2022-12-28T02:05:23.784Z,6.50
2022-12-28T02:07:29.464Z,6.50
2022-12-28T02:09:35.352Z,6.50
2022-12-28T02:11:38.331Z,6.50
2022-12-28T02:13:43.522Z,6.50
2022-12-28T02:15:46.861Z,6.50
2022-12-28T02:17:49.397Z,6.50
2022-12-28T02:19:51.879Z,6.50
2022-12-28T02:21:58.208Z,6.50
2022-12-28T02:24:25.988Z,6.50
2022-12-28T02:26:35.343Z,6.50
2022-12-28T02:28:43.999Z,6.60
2022-12-28T02:30:49.258Z,6.60
2022-12-28T02:32:55.248Z,6.70
2022-12-28T02:34:59.729Z,6.70
2022-12-28T02:37:04.342Z,6.70
2022-12-28T02:39:10.790Z,6.70
2022-12-28T02:41:15.096Z,6.70
2022-12-28T02:43:17.771Z,6.80
2022-12-28T02:45:52.559Z,6.80
2022-12-28T02:48:13.275Z,6.80
2022-12-28T02:50:16.159Z,6.80
2022-12-28T02:52:20.879Z,6.90
2022-12-28T02:54:50.529Z,6.90
2022-12-28T02:59:28.480Z,6.90
2022-12-28T03:01:35.942Z,7.00
2022-12-28T03:03:41.180Z,7.00
2022-12-28T03:06:04.236Z,7.10
2022-12-28T03:08:19.770Z,7.10
2022-12-28T03:10:24.501Z,7.10
2022-12-28T03:12:29.768Z,7.10
2022-12-28T03:14:35.123Z,7.10
2022-12-28T03:16:58.719Z,7.10
2022-12-28T03:19:21.226Z,7.20
2022-12-28T03:21:43.254Z,7.30
2022-12-28T03:24:05.681Z,7.20
2022-12-28T03:26:28.115Z,7.20
2022-12-28T03:28:50.816Z,7.20
2022-12-28T03:31:05.810Z,7.30
2022-12-28T03:33:10.712Z,7.30
2022-12-28T03:35:15.364Z,7.40
2022-12-28T03:37:21.689Z,7.40
2022-12-28T03:39:28.683Z,7.40
2022-12-28T03:41:33.260Z,7.40
2022-12-28T03:43:40.060Z,7.50
2022-12-28T03:45:47.426Z,7.50
2022-12-28T03:47:52.407Z,7.40
2022-12-28T03:49:55.074Z,7.50
2022-12-28T03:51:59.467Z,7.50
2022-12-28T03:54:02.463Z,7.40
2022-12-28T03:56:06.387Z,7.40
2022-12-28T03:58:09.204Z,7.40
2022-12-28T04:00:13.733Z,7.40
2022-12-28T04:02:18.315Z,7.40
2022-12-28T04:04:21.035Z,7.50
2022-12-28T04:06:26.324Z,7.50
2022-12-28T04:08:29.129Z,7.60
2022-12-28T04:10:32.830Z,7.60
2022-12-28T04:12:35.419Z,7.70
2022-12-28T04:14:39.939Z,7.60
2022-12-28T04:16:42.718Z,7.70
2022-12-28T04:18:47.124Z,7.60
2022-12-28T04:20:49.809Z,7.60
2022-12-28T04:22:53.292Z,7.60
2022-12-28T04:24:55.857Z,7.60
2022-12-28T04:26:58.468Z,7.70
2022-12-28T04:29:01.879Z,7.70
2022-12-28T04:31:08.199Z,7.70
2022-12-28T04:33:12.416Z,7.70
2022-12-28T04:35:15.988Z,7.70
2022-12-28T04:37:20.606Z,7.70
2022-12-28T04:39:23.208Z,7.80
2022-12-28T04:41:25.683Z,7.80
2022-12-28T04:43:30.152Z,7.80
2022-12-28T04:45:32.806Z,7.90
2022-12-28T04:47:35.267Z,7.90
2022-12-28T04:49:37.777Z,7.90
2022-12-28T04:51:40.222Z,7.90
2022-12-28T04:53:42.933Z,7.90
2022-12-28T04:55:45.413Z,7.90
2022-12-28T04:57:47.942Z,7.90
2022-12-28T04:59:50.452Z,7.90
2022-12-28T05:01:53.010Z,8.00
2022-12-28T05:03:58.256Z,7.90
2022-12-28T05:06:03.571Z,8.00
2022-12-28T05:08:06.369Z,8.00
2022-12-28T05:10:09.234Z,8.00
2022-12-28T05:12:11.708Z,8.10
2022-12-28T05:14:14.223Z,8.10
2022-12-28T05:16:18.017Z,8.10
2022-12-28T05:18:20.565Z,8.10
2022-12-28T05:20:23.073Z,8.10
2022-12-28T05:22:25.515Z,8.10
2022-12-28T05:24:27.985Z,8.20
2022-12-28T05:26:30.506Z,8.20
2022-12-28T05:28:33.360Z,8.10
2022-12-28T05:30:35.837Z,8.10
2022-12-28T05:32:38.345Z,8.10
2022-12-28T05:34:40.888Z,8.10
2022-12-28T05:36:43.358Z,8.10
2022-12-28T05:38:45.997Z,7.90
2022-12-28T05:40:48.555Z,8.00
2022-12-28T05:42:51.787Z,7.90
2022-12-28T05:44:54.439Z,7.80
2022-12-28T05:46:56.965Z,7.80
2022-12-28T05:48:59.988Z,7.80
2022-12-28T05:51:03.837Z,7.80
2022-12-28T05:53:06.556Z,7.80
2022-12-28T05:55:10.616Z,7.80
2022-12-28T05:57:13.085Z,7.80
2022-12-28T05:59:15.655Z,7.80
2022-12-28T06:01:19.186Z,7.80
2022-12-28T06:03:21.838Z,7.80
2022-12-28T06:05:24.679Z,7.80
2022-12-28T06:07:27.120Z,7.80
2022-12-28T06:09:29.620Z,7.80
2022-12-28T06:11:32.107Z,7.90
2022-12-28T06:13:34.707Z,7.80
2022-12-28T06:15:37.209Z,7.90
2022-12-28T06:17:39.675Z,7.90
2022-12-28T06:19:42.174Z,7.90
2022-12-28T06:21:44.659Z,7.80
2022-12-28T06:23:47.709Z,7.80
2022-12-28T06:25:50.233Z,7.80
2022-12-28T06:27:53.245Z,7.90
2022-12-28T06:29:55.972Z,7.90
2022-12-28T06:31:59.900Z,7.80
2022-12-28T06:34:03.163Z,7.80
2022-12-28T06:36:07.843Z,7.80
2022-12-28T06:38:10.425Z,7.70
2022-12-28T06:40:13.104Z,7.80
2022-12-28T06:42:15.599Z,7.80
2022-12-28T06:44:18.159Z,7.80
2022-12-28T06:46:21.979Z,7.80
2022-12-28T06:48:24.494Z,7.80
2022-12-28T06:50:26.947Z,7.80
2022-12-28T06:52:29.750Z,7.80
2022-12-28T06:54:32.221Z,7.80
2022-12-28T06:56:35.384Z,7.80
2022-12-28T06:58:38.167Z,7.80
2022-12-28T07:00:40.633Z,7.80
2022-12-28T07:02:43.260Z,7.80
2022-12-28T07:04:45.835Z,7.90
2022-12-28T07:06:48.310Z,7.80
2022-12-28T07:08:51.088Z,7.80
2022-12-28T07:10:53.602Z,7.80
2022-12-28T07:12:56.077Z,7.80
2022-12-28T07:14:58.612Z,7.70
2022-12-28T07:17:01.339Z,7.70
2022-12-28T07:19:03.823Z,7.80
2022-12-28T07:21:07.776Z,7.80
2022-12-28T07:23:10.383Z,7.70
2022-12-28T07:25:12.889Z,7.70
2022-12-28T07:27:15.967Z,7.70
2022-12-28T07:29:18.427Z,7.70
2022-12-28T07:31:21.705Z,7.70
2022-12-28T07:33:24.303Z,7.70
2022-12-28T07:35:27.064Z,7.70
2022-12-28T07:37:29.671Z,7.70
2022-12-28T07:39:32.495Z,7.70
2022-12-28T07:41:35.865Z,7.70
2022-12-28T07:43:40.524Z,7.70
2022-12-28T07:45:43.188Z,7.70
2022-12-28T07:47:46.754Z,7.70
2022-12-28T07:49:49.464Z,7.70
2022-12-28T07:51:52.050Z,7.70
2022-12-28T07:53:55.135Z,7.70
2022-12-28T07:55:59.053Z,7.80
2022-12-28T07:58:01.556Z,7.70
2022-12-28T08:00:04.438Z,7.80
2022-12-28T08:02:10.094Z,7.70
2022-12-28T08:04:14.451Z,7.70
2022-12-28T08:06:19.093Z,7.70
2022-12-28T08:08:21.598Z,7.70
2022-12-28T08:10:24.094Z,7.80
2022-12-28T08:12:26.640Z,7.60
2022-12-28T08:14:29.908Z,7.70
2022-12-28T08:16:33.629Z,7.80
2022-12-28T08:18:36.131Z,7.80
2022-12-28T08:20:38.671Z,7.80
2022-12-28T08:22:41.183Z,7.80
2022-12-28T08:24:43.697Z,7.80
2022-12-28T08:26:46.806Z,7.80
2022-12-28T08:28:50.294Z,7.80
2022-12-28T08:30:52.792Z,7.80
2022-12-28T08:32:55.350Z,7.80
2022-12-28T08:34:58.324Z,7.90
2022-12-28T08:37:00.841Z,7.90
2022-12-28T08:39:04.194Z,7.90
2022-12-28T08:41:07.993Z,7.90
2022-12-28T08:43:10.572Z,7.90
2022-12-28T08:45:13.235Z,7.90
2022-12-28T08:47:15.858Z,8.00
2022-12-28T08:49:18.610Z,7.90
2022-12-28T08:51:22.955Z,8.00
2022-12-28T08:53:25.452Z,8.00
2022-12-28T08:55:27.977Z,8.00
2022-12-28T08:57:30.564Z,8.00
2022-12-28T08:59:33.018Z,8.00
2022-12-28T09:01:43.047Z,8.00
2022-12-28T09:03:41.928Z,8.00
2022-12-28T09:05:44.480Z,8.10
2022-12-28T09:07:46.947Z,8.10
2022-12-28T09:09:49.512Z,8.10
2022-12-28T09:11:52.050Z,8.20
2022-12-28T09:13:55.685Z,8.10
2022-12-28T09:15:59.430Z,8.10
2022-12-28T09:18:01.984Z,8.20
2022-12-28T09:20:05.456Z,8.20
2022-12-28T09:22:07.951Z,8.20
2022-12-28T09:24:12.263Z,8.20
2022-12-28T09:26:15.924Z,8.20
2022-12-28T09:28:18.419Z,8.30
2022-12-28T09:30:20.967Z,8.30
2022-12-28T09:32:23.533Z,7.80
2022-12-28T09:34:41.421Z,8.30
2022-12-28T09:36:31.744Z,8.30
2022-12-28T09:38:34.223Z,8.30
2022-12-28T09:40:36.800Z,8.40
2022-12-28T09:42:41.135Z,8.40
2022-12-28T09:44:46.725Z,8.40
2022-12-28T09:46:51.101Z,8.40
2022-12-28T09:48:55.379Z,8.40
2022-12-28T09:50:57.865Z,8.50
2022-12-28T09:53:19.222Z,8.50
2022-12-28T09:55:23.527Z,8.50
2022-12-28T09:57:27.815Z,8.60
2022-12-28T09:59:32.072Z,8.60
2022-12-28T10:01:35.945Z,8.60
2022-12-28T10:03:39.941Z,8.70
2022-12-28T10:05:42.538Z,8.70
2022-12-28T10:07:45.017Z,8.70
2022-12-28T10:09:48.206Z,8.70
2022-12-28T10:11:50.707Z,8.70
2022-12-28T10:13:55.621Z,8.80
2022-12-28T10:15:58.975Z,8.80
2022-12-28T10:18:02.482Z,8.80
2022-12-28T10:20:07.644Z,8.80
2022-12-28T10:22:12.377Z,8.90
2022-12-28T10:24:32.138Z,8.90
2022-12-28T10:26:20.440Z,8.90
2022-12-28T10:28:24.722Z,9.00
2022-12-28T10:30:27.464Z,9.00
2022-12-28T10:32:33.145Z,9.00
2022-12-28T10:34:36.463Z,9.10
2022-12-28T10:36:39.329Z,9.00
2022-12-28T10:38:42.852Z,9.10
2022-12-28T10:40:45.338Z,9.10
2022-12-28T10:42:50.156Z,9.10
2022-12-28T10:44:52.775Z,9.10
2022-12-28T10:46:56.939Z,9.10
2022-12-28T10:49:00.086Z,9.10
2022-12-28T10:51:04.406Z,9.10
2022-12-28T10:53:11.035Z,9.20
2022-12-28T10:55:27.008Z,9.20
2022-12-28T10:57:30.451Z,9.20
2022-12-28T10:59:33.099Z,9.20
2022-12-28T11:01:35.935Z,9.20
2022-12-28T11:03:40.600Z,9.30
2022-12-28T11:05:43.082Z,9.30
2022-12-28T11:07:45.595Z,9.30
2022-12-28T11:09:48.054Z,9.30
2022-12-28T11:11:52.458Z,9.40
2022-12-28T11:13:56.763Z,9.40
2022-12-28T11:15:59.186Z,9.40
2022-12-28T11:18:02.372Z,9.40
2022-12-28T11:20:06.928Z,9.50
2022-12-28T11:22:10.386Z,9.50
2022-12-28T11:24:13.919Z,9.50
2022-12-28T11:26:17.591Z,9.50
2022-12-28T11:28:22.515Z,9.50
2022-12-28T11:30:25.149Z,9.60
2022-12-28T11:32:29.587Z,9.50
2022-12-28T11:34:32.277Z,9.60
2022-12-28T11:36:36.764Z,9.60
2022-12-28T11:38:40.284Z,9.50
2022-12-28T11:40:46.833Z,9.60
2022-12-28T11:42:53.810Z,9.60
2022-12-28T11:44:56.398Z,8.90
2022-12-28T11:47:06.781Z,9.60
2022-12-28T11:49:25.985Z,9.60
2022-12-28T11:51:29.311Z,9.70
2022-12-28T11:53:51.798Z,9.70
2022-12-28T11:56:03.044Z,9.70
2022-12-28T11:58:23.291Z,9.70
2022-12-28T12:00:43.388Z,9.70
2022-12-28T12:02:48.580Z,9.70
2022-12-28T12:04:51.152Z,9.80
2022-12-28T12:07:16.403Z,9.90
2022-12-28T12:09:27.577Z,9.90
2022-12-28T12:11:32.812Z,10.00
2022-12-28T12:13:38.542Z,10.00
2022-12-28T12:15:42.888Z,10.10
2022-12-28T12:17:47.275Z,10.10
2022-12-28T12:19:51.531Z,10.20
2022-12-28T12:21:56.936Z,10.20
2022-12-28T12:24:04.278Z,10.20
2022-12-28T12:26:15.497Z,10.20
2022-12-28T12:28:22.347Z,10.30
2022-12-28T12:30:25.288Z,10.20
2022-12-28T12:32:30.088Z,10.20
2022-12-28T12:34:37.485Z,10.20
2022-12-28T12:36:56.231Z,10.30
2022-12-28T12:39:13.024Z,10.20
2022-12-28T12:41:20.441Z,10.20
2022-12-28T12:43:29.294Z,10.10
2022-12-28T12:45:33.867Z,10.10
2022-12-28T12:47:58.332Z,10.10
2022-12-28T12:50:10.576Z,10.10
2022-12-28T12:52:18.057Z,10.10
2022-12-28T12:54:24.652Z,10.10
2022-12-28T12:56:32.905Z,10.10
2022-12-28T12:58:39.648Z,10.10
2022-12-28T13:00:48.490Z,10.10
2022-12-28T13:02:55.175Z,10.10
2022-12-28T13:04:59.856Z,10.10
2022-12-28T13:07:03.925Z,10.10
2022-12-28T13:09:09.279Z,10.10
2022-12-28T13:11:12.304Z,10.10
2022-12-28T13:13:20.076Z,10.10
2022-12-28T13:15:22.765Z,10.10
2022-12-28T13:17:25.778Z,10.10
2022-12-28T13:19:29.482Z,10.10
2022-12-28T13:21:40.515Z,10.20
2022-12-28T13:23:43.614Z,10.20
2022-12-28T13:25:47.343Z,10.20
2022-12-28T13:27:49.844Z,10.20
2022-12-28T13:29:53.089Z,10.10
2022-12-28T13:31:55.810Z,10.10
2022-12-28T13:33:59.616Z,10.10
2022-12-28T13:36:05.831Z,10.00
2022-12-28T13:38:12.602Z,10.00
2022-12-28T13:40:17.308Z,10.00
2022-12-28T13:42:21.628Z,9.90
2022-12-28T13:44:35.950Z,9.90
2022-12-28T13:46:40.209Z,9.90
2022-12-28T13:48:45.984Z,9.90
2022-12-28T13:50:49.542Z,9.80
2022-12-28T13:52:53.957Z,9.80
2022-12-28T13:54:58.328Z,9.80
2022-12-28T13:57:35.930Z,9.80
2022-12-28T13:59:07.187Z,9.80
2022-12-28T14:01:11.599Z,9.80
2022-12-28T14:03:15.401Z,9.80
2022-12-28T14:05:18.776Z,9.80
2022-12-28T14:07:23.084Z,9.80
2022-12-28T14:09:25.921Z,9.80
2022-12-28T14:11:29.140Z,9.80
2022-12-28T14:13:32.184Z,9.80
2022-12-28T14:15:41.013Z,9.80
2022-12-28T14:17:40.334Z,9.70
2022-12-28T14:19:43.169Z,9.70
2022-12-28T14:21:46.070Z,9.70
2022-12-28T14:23:48.575Z,9.70
2022-12-28T14:25:52.014Z,9.70
2022-12-28T14:27:57.405Z,9.70
2022-12-28T14:29:59.783Z,9.70
2022-12-28T14:32:03.733Z,9.70
2022-12-28T14:34:06.895Z,9.70
2022-12-28T14:36:18.879Z,9.60
2022-12-28T14:38:22.489Z,9.60
2022-12-28T14:40:27.363Z,9.60
2022-12-28T14:42:30.263Z,9.60
2022-12-28T14:44:33.838Z,9.60
2022-12-28T14:46:38.154Z,9.60
2022-12-28T14:48:42.440Z,9.60
2022-12-28T14:50:55.373Z,9.70
2022-12-28T14:53:09.727Z,9.70
2022-12-28T14:55:26.678Z,9.60
2022-12-28T14:57:31.234Z,9.60
2022-12-28T14:59:34.630Z,9.70
2022-12-28T15:01:41.592Z,9.70
2022-12-28T15:03:51.439Z,9.70
2022-12-28T15:05:54.762Z,9.70
2022-12-28T15:07:57.221Z,9.70
2022-12-28T15:09:59.755Z,9.70
2022-12-28T15:12:10.140Z,9.80
2022-12-28T15:14:13.305Z,9.80
2022-12-28T15:16:17.929Z,9.70
2022-12-28T15:18:20.733Z,9.70
2022-12-28T15:20:23.259Z,9.70
2022-12-28T15:22:25.878Z,9.70
2022-12-28T15:24:33.517Z,9.70
2022-12-28T15:26:32.841Z,9.80
2022-12-28T15:28:35.869Z,9.70
2022-12-28T15:30:40.456Z,9.70
2022-12-28T15:32:43.011Z,9.70
2022-12-28T15:34:45.586Z,9.70
2022-12-28T15:36:48.078Z,9.70
2022-12-28T15:38:50.597Z,9.70
2022-12-28T15:40:54.927Z,9.70
2022-12-28T15:42:57.445Z,9.60
2022-12-28T15:45:00.161Z,9.60
2022-12-28T15:47:02.889Z,9.60
2022-12-28T15:49:06.681Z,9.60
2022-12-28T15:51:09.223Z,9.60
2022-12-28T15:53:11.860Z,9.50
2022-12-28T15:55:14.524Z,9.60
2022-12-28T15:57:17.027Z,9.60
2022-12-28T15:59:19.541Z,9.60
2022-12-28T16:01:22.660Z,9.70
2022-12-28T16:03:25.535Z,9.70
2022-12-28T16:05:28.051Z,9.70
2022-12-28T16:07:30.566Z,9.70
2022-12-28T16:09:33.177Z,9.70
2022-12-28T16:11:35.661Z,9.70
2022-12-28T16:13:38.173Z,9.70
2022-12-28T16:15:40.896Z,9.80
2022-12-28T16:17:51.348Z,9.80
2022-12-28T16:19:47.961Z,9.80
2022-12-28T16:21:51.095Z,9.80
2022-12-28T16:23:53.728Z,9.80
2022-12-28T16:25:56.348Z,9.90
2022-12-28T16:27:59.143Z,9.80
2022-12-28T16:30:03.686Z,9.80
2022-12-28T16:32:06.629Z,9.90
2022-12-28T16:34:11.871Z,9.80
2022-12-28T16:36:15.589Z,9.80
2022-12-28T16:38:19.597Z,9.80
2022-12-28T16:40:22.155Z,9.80
2022-12-28T16:42:37.923Z,9.80
2022-12-28T16:44:39.069Z,9.80
2022-12-28T16:46:42.051Z,9.80
2022-12-28T16:48:44.552Z,9.80
2022-12-28T16:50:49.162Z,9.80
2022-12-28T16:52:55.385Z,9.80
2022-12-28T16:54:58.792Z,9.80
2022-12-28T16:57:01.558Z,9.80
2022-12-28T16:59:04.549Z,9.80
2022-12-28T17:01:08.598Z,9.80
2022-12-28T17:03:11.609Z,9.90
2022-12-28T17:05:14.585Z,9.90
2022-12-28T17:07:17.199Z,10.00
2022-12-28T17:09:20.165Z,9.90
2022-12-28T17:11:22.831Z,10.00
2022-12-28T17:13:25.301Z,10.00
2022-12-28T17:15:27.847Z,10.00
2022-12-28T17:17:30.366Z,10.00
2022-12-28T17:19:32.864Z,10.10
2022-12-28T17:21:35.385Z,10.10
2022-12-28T17:23:39.156Z,10.00
2022-12-28T17:25:42.588Z,10.10
2022-12-28T17:27:45.197Z,10.00
2022-12-28T17:29:48.008Z,10.00
2022-12-28T17:31:50.563Z,10.00
2022-12-28T17:33:54.441Z,10.00
2022-12-28T17:35:56.908Z,10.00
2022-12-28T17:37:59.637Z,10.00
2022-12-28T17:40:02.492Z,10.00
2022-12-28T17:42:05.500Z,10.00
2022-12-28T17:44:07.986Z,10.00
2022-12-28T17:46:10.569Z,9.90
2022-12-28T17:48:13.447Z,9.90
2022-12-28T17:50:17.482Z,9.90
2022-12-28T17:52:21.723Z,9.80
2022-12-28T17:54:24.328Z,9.80
2022-12-28T17:56:26.794Z,9.80
2022-12-28T17:58:29.796Z,9.80
2022-12-28T18:00:32.333Z,9.70
2022-12-28T18:02:35.016Z,9.70
2022-12-28T18:04:37.923Z,9.70
2022-12-28T18:06:40.404Z,9.60
2022-12-28T18:08:42.975Z,9.60
2022-12-28T18:10:45.538Z,9.60
2022-12-28T18:12:48.100Z,9.70
2022-12-28T18:14:50.578Z,9.70
2022-12-28T18:16:53.394Z,9.60
2022-12-28T18:18:55.997Z,9.60
2022-12-28T18:20:58.928Z,9.60
2022-12-28T18:23:13.077Z,9.60
2022-12-28T18:25:14.635Z,9.50
2022-12-28T18:27:17.642Z,9.50
2022-12-28T18:29:20.112Z,9.50
2022-12-28T18:31:23.522Z,9.50
2022-12-28T18:33:26.125Z,9.40
2022-12-28T18:35:29.223Z,9.50
2022-12-28T18:37:31.881Z,9.50
2022-12-28T18:39:34.371Z,9.50
2022-12-28T18:41:36.930Z,9.40
2022-12-28T18:43:39.976Z,9.40
2022-12-28T18:45:42.494Z,9.40
2022-12-28T18:47:45.141Z,9.50
2022-12-28T18:49:47.787Z,9.50
2022-12-28T18:51:50.609Z,9.50
2022-12-28T18:53:53.117Z,9.50
2022-12-28T18:55:59.327Z,9.50
2022-12-28T18:58:02.028Z,9.50
2022-12-28T19:00:06.215Z,9.50
2022-12-28T19:02:15.872Z,9.40
2022-12-28T19:04:15.657Z,9.50
2022-12-28T19:06:18.534Z,9.50
2022-12-28T19:08:21.007Z,9.50
2022-12-28T19:10:23.507Z,9.50
2022-12-28T19:12:25.982Z,9.50
2022-12-28T19:14:28.467Z,9.50
2022-12-28T19:16:32.225Z,9.50
2022-12-28T19:18:35.314Z,9.50
2022-12-28T19:20:37.994Z,9.40
2022-12-28T19:22:40.471Z,9.40
2022-12-28T19:24:43.016Z,9.40
2022-12-28T19:26:46.069Z,9.40
2022-12-28T19:28:48.645Z,9.40
2022-12-28T19:30:51.191Z,9.30
2022-12-28T19:32:54.486Z,9.30
2022-12-28T19:34:56.971Z,9.30
2022-12-28T19:36:59.486Z,9.30
2022-12-28T19:39:02.019Z,9.30
2022-12-28T19:41:05.603Z,9.30
2022-12-28T19:43:08.094Z,9.30
2022-12-28T19:45:11.289Z,9.30
2022-12-28T19:47:13.800Z,9.30
2022-12-28T19:49:16.428Z,9.30
2022-12-28T19:51:18.977Z,9.20
2022-12-28T19:53:21.484Z,9.30
2022-12-28T19:55:23.940Z,9.20
2022-12-28T19:57:26.454Z,9.30
2022-12-28T19:59:28.978Z,9.30
2022-12-28T20:01:31.525Z,9.30
2022-12-28T20:03:34.396Z,9.30
2022-12-28T20:05:37.208Z,9.40
2022-12-28T20:07:40.127Z,9.30
2022-12-28T20:09:42.609Z,9.30
2022-12-28T20:11:45.246Z,9.30
2022-12-28T20:13:50.179Z,9.30
2022-12-28T20:15:52.959Z,9.30
2022-12-28T20:17:55.501Z,9.30
2022-12-28T20:19:58.090Z,9.30
2022-12-28T20:22:00.669Z,9.40
2022-12-28T20:24:03.741Z,9.40
2022-12-28T20:26:06.232Z,9.40
2022-12-28T20:28:08.802Z,9.40
2022-12-28T20:30:12.376Z,9.40
2022-12-28T20:32:14.867Z,9.30
2022-12-28T20:34:17.500Z,9.40
2022-12-28T20:36:20.524Z,9.50
2022-12-28T20:38:23.034Z,9.40
2022-12-28T20:40:25.506Z,9.40
2022-12-28T20:42:46.962Z,9.50
2022-12-28T20:44:49.478Z,9.40
2022-12-28T20:46:52.489Z,9.50
2022-12-28T20:48:55.863Z,9.50
2022-12-28T20:50:59.157Z,9.50
2022-12-28T20:53:01.628Z,9.50
2022-12-28T20:55:04.367Z,9.60
2022-12-28T20:57:06.846Z,9.60
2022-12-28T20:59:09.816Z,9.70
2022-12-28T21:01:13.979Z,9.70
2022-12-28T21:03:16.534Z,9.70
2022-12-28T21:05:19.158Z,9.70
2022-12-28T21:07:21.659Z,9.90
2022-12-28T21:09:24.699Z,9.90
2022-12-28T21:11:28.135Z,9.90
2022-12-28T21:13:30.675Z,9.90
2022-12-28T21:15:33.267Z,9.90
2022-12-28T21:17:35.807Z,10.00
2022-12-28T21:19:38.329Z,10.00
2022-12-28T21:21:40.920Z,10.00
2022-12-28T21:23:43.411Z,10.10
2022-12-28T21:25:46.000Z,10.00
2022-12-28T21:27:48.514Z,10.10
2022-12-28T21:29:51.065Z,10.10
2022-12-28T21:31:54.413Z,10.20
2022-12-28T21:33:57.069Z,10.20
2022-12-28T21:36:00.321Z,10.20
2022-12-28T21:38:04.198Z,10.20
2022-12-28T21:40:09.281Z,10.30
2022-12-28T21:42:11.748Z,10.30
2022-12-28T21:44:15.171Z,10.30
2022-12-28T21:46:17.692Z,10.20
2022-12-28T21:48:20.158Z,10.20
2022-12-28T21:50:23.095Z,10.20
2022-12-28T21:52:25.602Z,10.20
2022-12-28T21:54:28.690Z,9.90
2022-12-28T21:56:31.538Z,10.20
2022-12-28T21:58:34.127Z,10.10
2022-12-28T22:00:54.984Z,10.20
2022-12-28T22:03:15.984Z,10.20
2022-12-28T22:05:36.832Z,10.10
2022-12-28T22:07:39.499Z,10.10
2022-12-28T22:10:00.189Z,10.10
2022-12-28T22:12:20.947Z,10.10
2022-12-28T22:14:23.450Z,10.10
2022-12-28T22:16:26.020Z,10.00
2022-12-28T22:20:33.274Z,10.10
2022-12-28T22:22:35.802Z,10.10
2022-12-28T22:24:38.313Z,10.00
2022-12-28T22:26:40.809Z,10.10
2022-12-28T22:28:43.760Z,10.10
2022-12-28T22:30:46.244Z,10.10
2022-12-28T22:32:49.576Z,10.10
2022-12-28T22:34:53.054Z,10.10
2022-12-28T22:37:04.034Z,10.10
2022-12-28T22:39:32.911Z,10.10
2022-12-28T22:41:37.593Z,10.10
2022-12-28T22:43:40.087Z,10.10
2022-12-28T22:45:42.697Z,10.20
2022-12-28T22:47:45.210Z,10.20
2022-12-28T22:49:47.679Z,10.20
2022-12-28T22:51:50.212Z,10.20
2022-12-28T22:53:52.725Z,10.30
2022-12-28T22:55:58.826Z,10.30
2022-12-28T22:58:01.511Z,10.30
2022-12-28T23:00:05.215Z,10.30
2022-12-28T23:02:07.877Z,10.20
2022-12-28T23:04:10.593Z,10.20
2022-12-28T23:06:13.844Z,10.30
2022-12-28T23:08:16.675Z,10.20
2022-12-28T23:10:19.483Z,10.20
2022-12-28T23:12:22.005Z,10.20
2022-12-28T23:14:43.627Z,10.20
2022-12-28T23:16:46.761Z,10.20
2022-12-28T23:19:21.031Z,10.30
2022-12-28T23:23:59.575Z,10.30
2022-12-28T23:26:20.228Z,10.40
2022-12-28T23:28:23.240Z,10.40
2022-12-28T23:30:26.109Z,10.40
2022-12-28T23:32:29.087Z,10.40
2022-12-28T23:34:31.584Z,10.50
2022-12-28T23:36:34.162Z,10.50
2022-12-28T23:38:36.746Z,10.50
2022-12-28T23:40:41.160Z,10.50
2022-12-28T23:42:50.210Z,10.50
2022-12-28T23:44:53.307Z,10.50
2022-12-28T23:46:59.267Z,10.50
2022-12-28T23:49:06.654Z,10.50
2022-12-28T23:51:11.122Z,10.50
2022-12-28T23:53:14.849Z,10.60
2022-12-28T23:55:17.862Z,10.60
2022-12-28T23:57:20.660Z,10.60
2022-12-28T23:59:23.390Z,10.60
